sensor_id;sensor_type;location;lat;lon;timestamp;temperature;humidity
4695;DHT22;2361;49.540;8.390;2023-02-01T00:01:06;7.10;99.90
4695;DHT22;2361;49.540;8.390;2023-02-01T00:03:34;7.10;99.90
4695;DHT22;2361;49.540;8.390;2023-02-01T00:06:01;7.10;99.90
4695;DHT22;2361;49.540;8.390;2023-02-01T00:08:29;7.10;99.90
4695;DHT22;2361;49.540;8.390;2023-02-01T00:11:05;7.10;99.90
4695;DHT22;2361;49.540;8.390;2023-02-01T00:13:38;7.20;99.90
4695;DHT22;2361;49.540;8.390;2023-02-01T00:16:11;7.10;99.90
4695;DHT22;2361;49.540;8.390;2023-02-01T00:18:43;7.10;99.90
4695;DHT22;2361;49.540;8.390;2023-02-01T00:21:11;7.10;99.90
4695;DHT22;2361;49.540;8.390;2023-02-01T00:23:43;7.20;99.90
4695;DHT22;2361;49.540;8.390;2023-02-01T00:26:16;7.10;99.90
4695;DHT22;2361;49.540;8.390;2023-02-01T00:28:44;7.00;99.90
4695;DHT22;2361;49.540;8.390;2023-02-01T00:31:12;7.00;99.90
4695;DHT22;2361;49.540;8.390;2023-02-01T00:33:39;7.10;99.90
4695;DHT22;2361;49.540;8.390;2023-02-01T00:36:07;7.00;99.90
4695;DHT22;2361;49.540;8.390;2023-02-01T00:38:37;7.00;99.90
4695;DHT22;2361;49.540;8.390;2023-02-01T00:41:06;7.00;99.90
4695;DHT22;2361;49.540;8.390;2023-02-01T00:43:35;6.90;99.90
4695;DHT22;2361;49.540;8.390;2023-02-01T00:46:02;6.90;99.90
4695;DHT22;2361;49.540;8.390;2023-02-01T00:48:30;6.90;99.90
4695;DHT22;2361;49.540;8.390;2023-02-01T00:51:04;6.90;99.90
4695;DHT22;2361;49.540;8.390;2023-02-01T00:53:32;6.80;99.90
4695;DHT22;2361;49.540;8.390;2023-02-01T00:55:59;6.80;99.90
4695;DHT22;2361;49.540;8.390;2023-02-01T00:58:27;6.80;99.90
4695;DHT22;2361;49.540;8.390;2023-02-01T01:03:35;6.80;99.90
4695;DHT22;2361;49.540;8.390;2023-02-01T01:06:09;6.90;99.90
4695;DHT22;2361;49.540;8.390;2023-02-01T01:08:39;6.90;99.90
4695;DHT22;2361;49.540;8.390;2023-02-01T01:11:08;6.90;99.90
4695;DHT22;2361;49.540;8.390;2023-02-01T01:13:38;6.90;99.90
4695;DHT22;2361;49.540;8.390;2023-02-01T01:16:06;6.90;99.90
4695;DHT22;2361;49.540;8.390;2023-02-01T01:18:34;7.00;99.90
4695;DHT22;2361;49.540;8.390;2023-02-01T01:21:01;7.00;99.90
4695;DHT22;2361;49.540;8.390;2023-02-01T01:23:31;7.00;99.90
4695;DHT22;2361;49.540;8.390;2023-02-01T01:25:58;7.00;99.90
4695;DHT22;2361;49.540;8.390;2023-02-01T01:28:26;7.00;99.90
4695;DHT22;2361;49.540;8.390;2023-02-01T01:30:53;7.00;99.90
4695;DHT22;2361;49.540;8.390;2023-02-01T01:33:21;7.00;99.90
4695;DHT22;2361;49.540;8.390;2023-02-01T01:35:48;7.00;99.90
4695;DHT22;2361;49.540;8.390;2023-02-01T01:38:15;7.00;99.90
4695;DHT22;2361;49.540;8.390;2023-02-01T01:40:45;7.00;99.90
4695;DHT22;2361;49.540;8.390;2023-02-01T01:43:18;7.10;99.90
4695;DHT22;2361;49.540;8.390;2023-02-01T01:45:49;7.10;99.90
4695;DHT22;2361;49.540;8.390;2023-02-01T01:48:26;7.10;99.90
4695;DHT22;2361;49.540;8.390;2023-02-01T01:50:59;7.10;99.90
4695;DHT22;2361;49.540;8.390;2023-02-01T01:53:45;7.00;99.90
4695;DHT22;2361;49.540;8.390;2023-02-01T01:56:16;7.00;99.90
4695;DHT22;2361;49.540;8.390;2023-02-01T01:58:43;7.00;99.90
4695;DHT22;2361;49.540;8.390;2023-02-01T02:01:11;7.10;99.90
4695;DHT22;2361;49.540;8.390;2023-02-01T02:03:42;7.10;99.90
4695;DHT22;2361;49.540;8.390;2023-02-01T02:06:17;7.10;99.90
4695;DHT22;2361;49.540;8.390;2023-02-01T02:08:50;7.10;99.90
4695;DHT22;2361;49.540;8.390;2023-02-01T02:11:17;7.10;99.90
4695;DHT22;2361;49.540;8.390;2023-02-01T02:13:50;7.10;99.90
4695;DHT22;2361;49.540;8.390;2023-02-01T02:16:40;7.10;99.90
4695;DHT22;2361;49.540;8.390;2023-02-01T02:37:46;7.10;99.90
4695;DHT22;2361;49.540;8.390;2023-02-01T02:40:29;7.10;99.90
4695;DHT22;2361;49.540;8.390;2023-02-01T02:43:21;7.10;99.90
4695;DHT22;2361;49.540;8.390;2023-02-01T02:46:21;7.10;99.90
4695;DHT22;2361;49.540;8.390;2023-02-01T02:49:17;7.10;99.90
4695;DHT22;2361;49.540;8.390;2023-02-01T02:51:56;7.00;99.90
4695;DHT22;2361;49.540;8.390;2023-02-01T02:54:49;7.00;99.90
4695;DHT22;2361;49.540;8.390;2023-02-01T02:57:38;7.00;99.90
4695;DHT22;2361;49.540;8.390;2023-02-01T03:00:32;7.00;99.90
4695;DHT22;2361;49.540;8.390;2023-02-01T03:03:18;7.00;99.90
4695;DHT22;2361;49.540;8.390;2023-02-01T03:06:04;6.90;99.90
4695;DHT22;2361;49.540;8.390;2023-02-01T03:08:42;6.90;99.90
4695;DHT22;2361;49.540;8.390;2023-02-01T03:11:14;6.90;99.90
4695;DHT22;2361;49.540;8.390;2023-02-01T03:13:56;7.00;99.90
4695;DHT22;2361;49.540;8.390;2023-02-01T03:16:28;7.00;99.90
4695;DHT22;2361;49.540;8.390;2023-02-01T03:21:48;7.00;99.90
4695;DHT22;2361;49.540;8.390;2023-02-01T03:24:24;7.00;99.90
4695;DHT22;2361;49.540;8.390;2023-02-01T03:30:22;7.00;99.90
4695;DHT22;2361;49.540;8.390;2023-02-01T03:32:58;7.10;99.90
4695;DHT22;2361;49.540;8.390;2023-02-01T03:39:14;7.10;99.90
4695;DHT22;2361;49.540;8.390;2023-02-01T03:41:49;7.10;99.90
4695;DHT22;2361;49.540;8.390;2023-02-01T03:44:37;7.10;99.90
4695;DHT22;2361;49.540;8.390;2023-02-01T03:47:10;7.10;99.90
4695;DHT22;2361;49.540;8.390;2023-02-01T03:49:46;7.10;99.90
4695;DHT22;2361;49.540;8.390;2023-02-01T03:52:30;7.10;99.90
4695;DHT22;2361;49.540;8.390;2023-02-01T03:55:01;7.10;99.90
4695;DHT22;2361;49.540;8.390;2023-02-01T03:57:34;7.10;99.90
4695;DHT22;2361;49.540;8.390;2023-02-01T04:00:06;7.10;99.90
4695;DHT22;2361;49.540;8.390;2023-02-01T04:02:36;7.10;99.90
4695;DHT22;2361;49.540;8.390;2023-02-01T04:05:03;7.10;99.90
4695;DHT22;2361;49.540;8.390;2023-02-01T04:07:30;7.20;99.90
4695;DHT22;2361;49.540;8.390;2023-02-01T04:09:58;7.10;99.90
4695;DHT22;2361;49.540;8.390;2023-02-01T04:12:25;7.10;99.90
4695;DHT22;2361;49.540;8.390;2023-02-01T04:14:52;7.10;99.90
4695;DHT22;2361;49.540;8.390;2023-02-01T04:17:19;7.10;99.90
4695;DHT22;2361;49.540;8.390;2023-02-01T04:19:46;7.10;99.90
4695;DHT22;2361;49.540;8.390;2023-02-01T04:22:13;7.10;99.90
4695;DHT22;2361;49.540;8.390;2023-02-01T04:24:39;7.10;99.90
4695;DHT22;2361;49.540;8.390;2023-02-01T04:27:06;7.10;99.90
4695;DHT22;2361;49.540;8.390;2023-02-01T04:29:33;7.10;99.90
4695;DHT22;2361;49.540;8.390;2023-02-01T04:32:00;7.10;99.90
4695;DHT22;2361;49.540;8.390;2023-02-01T04:34:27;7.10;99.90
4695;DHT22;2361;49.540;8.390;2023-02-01T04:36:54;7.00;99.90
4695;DHT22;2361;49.540;8.390;2023-02-01T04:39:20;7.10;99.90
4695;DHT22;2361;49.540;8.390;2023-02-01T04:41:47;7.10;99.90
4695;DHT22;2361;49.540;8.390;2023-02-01T04:44:16;7.10;99.90
4695;DHT22;2361;49.540;8.390;2023-02-01T04:46:46;7.10;99.90
4695;DHT22;2361;49.540;8.390;2023-02-01T04:49:14;7.20;99.90
4695;DHT22;2361;49.540;8.390;2023-02-01T04:51:42;7.10;99.90
4695;DHT22;2361;49.540;8.390;2023-02-01T04:54:10;7.10;99.90
4695;DHT22;2361;49.540;8.390;2023-02-01T04:56:38;7.20;99.90
4695;DHT22;2361;49.540;8.390;2023-02-01T04:59:06;7.20;99.90
4695;DHT22;2361;49.540;8.390;2023-02-01T05:01:33;7.20;99.90
4695;DHT22;2361;49.540;8.390;2023-02-01T05:04:02;7.20;99.90
4695;DHT22;2361;49.540;8.390;2023-02-01T05:06:32;7.20;99.90
4695;DHT22;2361;49.540;8.390;2023-02-01T05:09:03;7.20;99.90
4695;DHT22;2361;49.540;8.390;2023-02-01T05:11:32;7.20;99.90
4695;DHT22;2361;49.540;8.390;2023-02-01T05:14:18;7.30;99.90
4695;DHT22;2361;49.540;8.390;2023-02-01T05:16:45;7.30;99.90
4695;DHT22;2361;49.540;8.390;2023-02-01T05:19:12;7.40;99.90
4695;DHT22;2361;49.540;8.390;2023-02-01T05:21:39;7.40;99.90
4695;DHT22;2361;49.540;8.390;2023-02-01T05:24:08;7.40;99.90
4695;DHT22;2361;49.540;8.390;2023-02-01T05:26:47;7.40;99.90
4695;DHT22;2361;49.540;8.390;2023-02-01T05:29:16;7.30;99.90
4695;DHT22;2361;49.540;8.390;2023-02-01T05:31:47;7.30;99.90
4695;DHT22;2361;49.540;8.390;2023-02-01T05:34:15;7.30;99.90
4695;DHT22;2361;49.540;8.390;2023-02-01T05:36:42;7.40;99.90
4695;DHT22;2361;49.540;8.390;2023-02-01T05:39:09;7.30;99.90
4695;DHT22;2361;49.540;8.390;2023-02-01T05:41:36;7.30;99.90
4695;DHT22;2361;49.540;8.390;2023-02-01T05:44:04;7.20;99.90
4695;DHT22;2361;49.540;8.390;2023-02-01T05:46:34;7.10;99.90
4695;DHT22;2361;49.540;8.390;2023-02-01T05:49:02;7.10;99.90
4695;DHT22;2361;49.540;8.390;2023-02-01T05:51:29;7.10;99.90
4695;DHT22;2361;49.540;8.390;2023-02-01T05:53:56;7.10;99.90
4695;DHT22;2361;49.540;8.390;2023-02-01T05:56:23;7.10;99.90
4695;DHT22;2361;49.540;8.390;2023-02-01T05:58:50;7.00;99.90
4695;DHT22;2361;49.540;8.390;2023-02-01T06:01:18;7.00;99.90
4695;DHT22;2361;49.540;8.390;2023-02-01T06:03:45;7.00;99.90
4695;DHT22;2361;49.540;8.390;2023-02-01T06:06:12;7.00;99.90
4695;DHT22;2361;49.540;8.390;2023-02-01T06:08:39;7.00;99.90
4695;DHT22;2361;49.540;8.390;2023-02-01T06:11:08;7.00;99.90
4695;DHT22;2361;49.540;8.390;2023-02-01T06:13:39;7.00;99.90
4695;DHT22;2361;49.540;8.390;2023-02-01T06:16:06;7.10;99.90
4695;DHT22;2361;49.540;8.390;2023-02-01T06:18:34;7.10;99.90
4695;DHT22;2361;49.540;8.390;2023-02-01T06:21:02;7.10;99.90
4695;DHT22;2361;49.540;8.390;2023-02-01T06:23:30;7.10;99.90
4695;DHT22;2361;49.540;8.390;2023-02-01T06:26:05;7.00;99.90
4695;DHT22;2361;49.540;8.390;2023-02-01T06:28:34;7.00;99.90
4695;DHT22;2361;49.540;8.390;2023-02-01T06:31:05;7.10;99.90
4695;DHT22;2361;49.540;8.390;2023-02-01T06:33:34;7.10;99.90
4695;DHT22;2361;49.540;8.390;2023-02-01T06:36:04;7.10;99.90
4695;DHT22;2361;49.540;8.390;2023-02-01T06:38:32;7.10;99.90
4695;DHT22;2361;49.540;8.390;2023-02-01T06:41:03;7.10;99.90
4695;DHT22;2361;49.540;8.390;2023-02-01T06:43:31;7.10;99.90
4695;DHT22;2361;49.540;8.390;2023-02-01T06:46:04;7.10;99.90
4695;DHT22;2361;49.540;8.390;2023-02-01T06:48:33;7.10;99.90
4695;DHT22;2361;49.540;8.390;2023-02-01T06:51:01;7.10;99.90
4695;DHT22;2361;49.540;8.390;2023-02-01T06:53:28;7.10;99.90
4695;DHT22;2361;49.540;8.390;2023-02-01T06:56:01;7.00;99.90
4695;DHT22;2361;49.540;8.390;2023-02-01T06:58:32;7.00;99.90
4695;DHT22;2361;49.540;8.390;2023-02-01T07:01:07;7.00;99.90
4695;DHT22;2361;49.540;8.390;2023-02-01T07:03:35;7.00;99.90
4695;DHT22;2361;49.540;8.390;2023-02-01T07:06:03;7.00;99.90
4695;DHT22;2361;49.540;8.390;2023-02-01T07:08:32;7.00;99.90
4695;DHT22;2361;49.540;8.390;2023-02-01T07:11:05;7.00;99.90
4695;DHT22;2361;49.540;8.390;2023-02-01T07:13:33;7.00;99.90
4695;DHT22;2361;49.540;8.390;2023-02-01T07:16:01;7.00;99.90
4695;DHT22;2361;49.540;8.390;2023-02-01T07:18:29;7.00;99.90
4695;DHT22;2361;49.540;8.390;2023-02-01T07:20:57;6.90;99.90
4695;DHT22;2361;49.540;8.390;2023-02-01T07:23:25;6.90;99.90
4695;DHT22;2361;49.540;8.390;2023-02-01T07:25:55;6.90;99.90
4695;DHT22;2361;49.540;8.390;2023-02-01T07:28:23;7.00;99.90
4695;DHT22;2361;49.540;8.390;2023-02-01T07:30:50;7.00;99.90
4695;DHT22;2361;49.540;8.390;2023-02-01T07:33:22;7.10;99.90
4695;DHT22;2361;49.540;8.390;2023-02-01T07:35:53;7.20;99.90
4695;DHT22;2361;49.540;8.390;2023-02-01T07:38:20;7.30;99.90
4695;DHT22;2361;49.540;8.390;2023-02-01T07:40:48;7.40;99.90
4695;DHT22;2361;49.540;8.390;2023-02-01T07:43:15;7.50;99.90
4695;DHT22;2361;49.540;8.390;2023-02-01T07:45:42;7.60;99.90
4695;DHT22;2361;49.540;8.390;2023-02-01T07:48:09;7.80;99.90
4695;DHT22;2361;49.540;8.390;2023-02-01T07:50:36;8.20;99.90
4695;DHT22;2361;49.540;8.390;2023-02-01T07:53:03;8.50;99.90
4695;DHT22;2361;49.540;8.390;2023-02-01T07:55:30;8.80;99.90
4695;DHT22;2361;49.540;8.390;2023-02-01T07:57:58;8.90;99.90
4695;DHT22;2361;49.540;8.390;2023-02-01T08:00:26;8.90;99.90
4695;DHT22;2361;49.540;8.390;2023-02-01T08:03:11;9.00;99.90
4695;DHT22;2361;49.540;8.390;2023-02-01T08:05:38;9.10;99.90
4695;DHT22;2361;49.540;8.390;2023-02-01T08:08:06;9.10;99.90
4695;DHT22;2361;49.540;8.390;2023-02-01T08:10:33;9.10;99.90
4695;DHT22;2361;49.540;8.390;2023-02-01T08:13:02;9.00;99.90
4695;DHT22;2361;49.540;8.390;2023-02-01T08:15:29;9.00;99.90
4695;DHT22;2361;49.540;8.390;2023-02-01T08:17:58;9.10;99.90
4695;DHT22;2361;49.540;8.390;2023-02-01T08:20:25;9.10;99.90
4695;DHT22;2361;49.540;8.390;2023-02-01T08:22:55;9.00;99.90
4695;DHT22;2361;49.540;8.390;2023-02-01T08:25:23;8.80;99.90
4695;DHT22;2361;49.540;8.390;2023-02-01T08:27:50;8.70;99.90
4695;DHT22;2361;49.540;8.390;2023-02-01T08:30:17;8.50;99.90
4695;DHT22;2361;49.540;8.390;2023-02-01T08:32:44;8.30;99.90
4695;DHT22;2361;49.540;8.390;2023-02-01T08:35:11;8.20;99.90
4695;DHT22;2361;49.540;8.390;2023-02-01T08:37:38;8.20;99.90
4695;DHT22;2361;49.540;8.390;2023-02-01T08:40:06;8.20;99.90
4695;DHT22;2361;49.540;8.390;2023-02-01T08:45:09;8.20;99.90
4695;DHT22;2361;49.540;8.390;2023-02-01T08:47:36;8.20;99.90
4695;DHT22;2361;49.540;8.390;2023-02-01T08:50:04;8.20;99.90
4695;DHT22;2361;49.540;8.390;2023-02-01T08:52:31;8.20;99.90
4695;DHT22;2361;49.540;8.390;2023-02-01T08:54:58;8.20;99.90
4695;DHT22;2361;49.540;8.390;2023-02-01T08:57:25;8.40;99.90
4695;DHT22;2361;49.540;8.390;2023-02-01T08:59:53;8.80;99.90
4695;DHT22;2361;49.540;8.390;2023-02-01T09:02:20;9.40;99.90
4695;DHT22;2361;49.540;8.390;2023-02-01T09:04:47;10.00;99.90
4695;DHT22;2361;49.540;8.390;2023-02-01T09:07:14;10.90;99.90
4695;DHT22;2361;49.540;8.390;2023-02-01T09:09:41;12.00;99.90
4695;DHT22;2361;49.540;8.390;2023-02-01T09:12:09;13.00;99.90
4695;DHT22;2361;49.540;8.390;2023-02-01T09:14:36;13.60;99.90
4695;DHT22;2361;49.540;8.390;2023-02-01T09:17:03;14.20;99.90
4695;DHT22;2361;49.540;8.390;2023-02-01T09:19:31;14.40;99.90
4695;DHT22;2361;49.540;8.390;2023-02-01T09:21:59;14.50;99.90
4695;DHT22;2361;49.540;8.390;2023-02-01T09:24:26;14.20;99.90
4695;DHT22;2361;49.540;8.390;2023-02-01T09:26:53;14.10;99.90
4695;DHT22;2361;49.540;8.390;2023-02-01T09:29:20;14.10;99.90
4695;DHT22;2361;49.540;8.390;2023-02-01T09:31:47;13.80;99.90
4695;DHT22;2361;49.540;8.390;2023-02-01T09:34:28;13.30;99.90
4695;DHT22;2361;49.540;8.390;2023-02-01T09:36:55;12.80;99.90
4695;DHT22;2361;49.540;8.390;2023-02-01T09:39:22;12.30;99.90
4695;DHT22;2361;49.540;8.390;2023-02-01T09:42:19;11.90;99.90
4695;DHT22;2361;49.540;8.390;2023-02-01T09:45:16;11.60;99.90
4695;DHT22;2361;49.540;8.390;2023-02-01T09:47:52;11.20;99.90
4695;DHT22;2361;49.540;8.390;2023-02-01T09:50:30;10.80;99.90
4695;DHT22;2361;49.540;8.390;2023-02-01T09:53:25;10.60;99.90
4695;DHT22;2361;49.540;8.390;2023-02-01T09:56:05;10.30;99.90
4695;DHT22;2361;49.540;8.390;2023-02-01T09:58:41;10.00;99.90
4695;DHT22;2361;49.540;8.390;2023-02-01T10:01:36;9.80;99.90
4695;DHT22;2361;49.540;8.390;2023-02-01T10:04:07;9.50;99.90
4695;DHT22;2361;49.540;8.390;2023-02-01T10:07:02;9.40;99.90
4695;DHT22;2361;49.540;8.390;2023-02-01T10:18:32;9.00;99.90
4695;DHT22;2361;49.540;8.390;2023-02-01T10:24:11;8.90;99.90
4695;DHT22;2361;49.540;8.390;2023-02-01T10:27:01;8.80;99.90
4695;DHT22;2361;49.540;8.390;2023-02-01T10:29:58;8.80;99.90
4695;DHT22;2361;49.540;8.390;2023-02-01T10:32:31;8.80;99.90
4695;DHT22;2361;49.540;8.390;2023-02-01T10:35:17;8.90;99.90
4695;DHT22;2361;49.540;8.390;2023-02-01T10:37:45;8.90;99.90
4695;DHT22;2361;49.540;8.390;2023-02-01T10:40:22;8.90;99.90
4695;DHT22;2361;49.540;8.390;2023-02-01T10:42:54;8.80;99.90
4695;DHT22;2361;49.540;8.390;2023-02-01T10:45:26;8.80;99.90
4695;DHT22;2361;49.540;8.390;2023-02-01T10:47:56;8.80;99.90
4695;DHT22;2361;49.540;8.390;2023-02-01T10:56:10;8.70;99.90
4695;DHT22;2361;49.540;8.390;2023-02-01T10:58:46;8.70;99.90
4695;DHT22;2361;49.540;8.390;2023-02-01T11:01:25;8.70;99.90
4695;DHT22;2361;49.540;8.390;2023-02-01T11:04:02;8.70;99.90
4695;DHT22;2361;49.540;8.390;2023-02-01T11:06:37;8.80;99.90
4695;DHT22;2361;49.540;8.390;2023-02-01T11:11:59;8.90;99.90
4695;DHT22;2361;49.540;8.390;2023-02-01T11:14:30;9.00;99.90
4695;DHT22;2361;49.540;8.390;2023-02-01T11:19:48;9.10;99.90
4695;DHT22;2361;49.540;8.390;2023-02-01T11:22:25;9.00;99.90
4695;DHT22;2361;49.540;8.390;2023-02-01T11:24:54;9.00;99.90
4695;DHT22;2361;49.540;8.390;2023-02-01T11:27:23;9.00;99.90
4695;DHT22;2361;49.540;8.390;2023-02-01T11:29:57;8.90;99.90
4695;DHT22;2361;49.540;8.390;2023-02-01T11:32:26;8.90;99.90
4695;DHT22;2361;49.540;8.390;2023-02-01T11:35:01;8.90;99.90
4695;DHT22;2361;49.540;8.390;2023-02-01T11:37:34;8.80;99.90
4695;DHT22;2361;49.540;8.390;2023-02-01T11:45:28;8.70;99.90
4695;DHT22;2361;49.540;8.390;2023-02-01T11:47:57;8.70;99.90
4695;DHT22;2361;49.540;8.390;2023-02-01T11:56:37;8.80;99.90
4695;DHT22;2361;49.540;8.390;2023-02-01T11:59:32;8.70;99.90
4695;DHT22;2361;49.540;8.390;2023-02-01T12:19:38;8.60;99.90
4695;DHT22;2361;49.540;8.390;2023-02-01T12:25:30;8.60;99.90
4695;DHT22;2361;49.540;8.390;2023-02-01T12:36:19;8.50;99.90
4695;DHT22;2361;49.540;8.390;2023-02-01T12:41:44;8.50;99.90
4695;DHT22;2361;49.540;8.390;2023-02-01T12:44:38;8.60;99.90
4695;DHT22;2361;49.540;8.390;2023-02-01T12:47:35;8.50;99.90
4695;DHT22;2361;49.540;8.390;2023-02-01T12:50:42;8.60;99.90
4695;DHT22;2361;49.540;8.390;2023-02-01T12:53:19;8.60;99.90
4695;DHT22;2361;49.540;8.390;2023-02-01T12:55:54;8.60;99.90
4695;DHT22;2361;49.540;8.390;2023-02-01T12:58:38;8.70;99.90
4695;DHT22;2361;49.540;8.390;2023-02-01T13:01:14;8.70;99.90
4695;DHT22;2361;49.540;8.390;2023-02-01T13:04:35;8.60;99.90
4695;DHT22;2361;49.540;8.390;2023-02-01T13:06:51;8.60;99.90
4695;DHT22;2361;49.540;8.390;2023-02-01T13:12:04;8.60;99.90
4695;DHT22;2361;49.540;8.390;2023-02-01T13:17:41;8.60;99.90
4695;DHT22;2361;49.540;8.390;2023-02-01T13:20:58;8.60;99.90
4695;DHT22;2361;49.540;8.390;2023-02-01T13:23:31;8.60;99.90
4695;DHT22;2361;49.540;8.390;2023-02-01T13:26:00;8.60;99.90
4695;DHT22;2361;49.540;8.390;2023-02-01T13:34:29;8.60;99.90
4695;DHT22;2361;49.540;8.390;2023-02-01T13:38:26;8.60;99.90
4695;DHT22;2361;49.540;8.390;2023-02-01T13:43:54;8.60;99.90
4695;DHT22;2361;49.540;8.390;2023-02-01T13:46:25;8.70;99.90
4695;DHT22;2361;49.540;8.390;2023-02-01T13:49:01;8.70;99.90
4695;DHT22;2361;49.540;8.390;2023-02-01T13:51:41;8.70;99.90
4695;DHT22;2361;49.540;8.390;2023-02-01T13:57:04;8.70;99.90
4695;DHT22;2361;49.540;8.390;2023-02-01T14:10:56;8.80;99.90
4695;DHT22;2361;49.540;8.390;2023-02-01T14:13:34;8.80;99.90
4695;DHT22;2361;49.540;8.390;2023-02-01T14:24:02;8.80;99.90
4695;DHT22;2361;49.540;8.390;2023-02-01T14:29:02;8.80;99.90
4695;DHT22;2361;49.540;8.390;2023-02-01T14:39:57;8.90;99.90
4695;DHT22;2361;49.540;8.390;2023-02-01T14:59:01;8.90;99.90
4695;DHT22;2361;49.540;8.390;2023-02-01T15:01:38;9.00;99.90
4695;DHT22;2361;49.540;8.390;2023-02-01T15:04:10;9.10;99.90
4695;DHT22;2361;49.540;8.390;2023-02-01T15:06:47;9.10;99.90
4695;DHT22;2361;49.540;8.390;2023-02-01T15:09:34;9.10;99.90
4695;DHT22;2361;49.540;8.390;2023-02-01T15:14:47;9.20;99.90
4695;DHT22;2361;49.540;8.390;2023-02-01T15:17:30;9.20;99.90
4695;DHT22;2361;49.540;8.390;2023-02-01T15:20:18;9.20;99.90
4695;DHT22;2361;49.540;8.390;2023-02-01T15:23:04;9.20;99.90
4695;DHT22;2361;49.540;8.390;2023-02-01T15:25:35;9.20;99.90
4695;DHT22;2361;49.540;8.390;2023-02-01T15:28:05;9.20;99.90
4695;DHT22;2361;49.540;8.390;2023-02-01T15:30:37;9.20;99.90
4695;DHT22;2361;49.540;8.390;2023-02-01T15:33:16;9.20;99.90
4695;DHT22;2361;49.540;8.390;2023-02-01T15:38:45;9.10;99.90
4695;DHT22;2361;49.540;8.390;2023-02-01T15:46:40;8.90;99.90
4695;DHT22;2361;49.540;8.390;2023-02-01T15:49:39;8.90;99.90
4695;DHT22;2361;49.540;8.390;2023-02-01T15:52:32;8.80;99.90
4695;DHT22;2361;49.540;8.390;2023-02-01T15:55:08;8.80;99.90
4695;DHT22;2361;49.540;8.390;2023-02-01T15:57:44;8.80;99.90
4695;DHT22;2361;49.540;8.390;2023-02-01T16:00:34;8.70;99.90
4695;DHT22;2361;49.540;8.390;2023-02-01T16:03:34;8.70;99.90
4695;DHT22;2361;49.540;8.390;2023-02-01T16:06:05;8.60;99.90
4695;DHT22;2361;49.540;8.390;2023-02-01T16:08:36;8.60;99.90
4695;DHT22;2361;49.540;8.390;2023-02-01T16:13:36;8.50;99.90
4695;DHT22;2361;49.540;8.390;2023-02-01T16:16:03;8.60;99.90
4695;DHT22;2361;49.540;8.390;2023-02-01T16:18:34;8.60;99.90
4695;DHT22;2361;49.540;8.390;2023-02-01T16:21:01;8.60;99.90
4695;DHT22;2361;49.540;8.390;2023-02-01T16:23:28;8.60;99.90
4695;DHT22;2361;49.540;8.390;2023-02-01T16:25:58;8.60;99.90
4695;DHT22;2361;49.540;8.390;2023-02-01T16:28:24;8.60;99.90
4695;DHT22;2361;49.540;8.390;2023-02-01T16:30:52;8.50;99.90
4695;DHT22;2361;49.540;8.390;2023-02-01T16:33:20;8.60;99.90
4695;DHT22;2361;49.540;8.390;2023-02-01T16:35:52;8.60;99.90
4695;DHT22;2361;49.540;8.390;2023-02-01T16:38:23;8.60;99.90
4695;DHT22;2361;49.540;8.390;2023-02-01T16:40:50;8.50;99.90
4695;DHT22;2361;49.540;8.390;2023-02-01T16:43:20;8.50;99.90
4695;DHT22;2361;49.540;8.390;2023-02-01T16:45:53;8.50;99.90
4695;DHT22;2361;49.540;8.390;2023-02-01T16:51:13;8.40;99.90
4695;DHT22;2361;49.540;8.390;2023-02-01T16:53:40;8.50;99.90
4695;DHT22;2361;49.540;8.390;2023-02-01T16:56:28;8.40;99.90
4695;DHT22;2361;49.540;8.390;2023-02-01T16:58:57;8.40;99.90
4695;DHT22;2361;49.540;8.390;2023-02-01T17:01:24;8.30;99.90
4695;DHT22;2361;49.540;8.390;2023-02-01T17:03:52;8.30;99.90
4695;DHT22;2361;49.540;8.390;2023-02-01T17:06:21;8.30;99.90
4695;DHT22;2361;49.540;8.390;2023-02-01T17:08:57;8.30;99.90
4695;DHT22;2361;49.540;8.390;2023-02-01T17:11:26;8.30;99.90
4695;DHT22;2361;49.540;8.390;2023-02-01T17:13:53;8.40;99.90
4695;DHT22;2361;49.540;8.390;2023-02-01T17:16:25;8.40;99.90
4695;DHT22;2361;49.540;8.390;2023-02-01T17:19:02;8.30;99.90
4695;DHT22;2361;49.540;8.390;2023-02-01T17:21:46;8.40;99.90
4695;DHT22;2361;49.540;8.390;2023-02-01T17:24:17;8.40;99.90
4695;DHT22;2361;49.540;8.390;2023-02-01T17:26:47;8.30;99.90
4695;DHT22;2361;49.540;8.390;2023-02-01T17:29:15;8.30;99.90
4695;DHT22;2361;49.540;8.390;2023-02-01T17:31:44;8.20;99.90
4695;DHT22;2361;49.540;8.390;2023-02-01T17:34:14;8.20;99.90
4695;DHT22;2361;49.540;8.390;2023-02-01T17:36:43;8.20;99.90
4695;DHT22;2361;49.540;8.390;2023-02-01T17:39:11;8.10;99.90
4695;DHT22;2361;49.540;8.390;2023-02-01T17:41:59;8.10;99.90
4695;DHT22;2361;49.540;8.390;2023-02-01T17:44:26;8.00;99.90
4695;DHT22;2361;49.540;8.390;2023-02-01T17:46:53;7.90;99.90
4695;DHT22;2361;49.540;8.390;2023-02-01T17:49:22;7.90;99.90
4695;DHT22;2361;49.540;8.390;2023-02-01T17:51:50;7.80;99.90
4695;DHT22;2361;49.540;8.390;2023-02-01T17:54:17;7.80;99.90
4695;DHT22;2361;49.540;8.390;2023-02-01T17:56:45;7.80;99.90
4695;DHT22;2361;49.540;8.390;2023-02-01T17:59:15;7.70;99.90
4695;DHT22;2361;49.540;8.390;2023-02-01T18:01:43;7.70;99.90
4695;DHT22;2361;49.540;8.390;2023-02-01T18:04:15;7.70;99.90
4695;DHT22;2361;49.540;8.390;2023-02-01T18:06:44;7.70;99.90
4695;DHT22;2361;49.540;8.390;2023-02-01T18:09:11;7.70;99.90
4695;DHT22;2361;49.540;8.390;2023-02-01T18:11:38;7.60;99.90
4695;DHT22;2361;49.540;8.390;2023-02-01T18:14:05;7.60;99.90
4695;DHT22;2361;49.540;8.390;2023-02-01T18:16:33;7.60;99.90
4695;DHT22;2361;49.540;8.390;2023-02-01T18:19:01;7.60;99.90
4695;DHT22;2361;49.540;8.390;2023-02-01T18:21:41;7.60;99.90
4695;DHT22;2361;49.540;8.390;2023-02-01T18:24:13;7.60;99.90
4695;DHT22;2361;49.540;8.390;2023-02-01T18:26:41;7.60;99.90
4695;DHT22;2361;49.540;8.390;2023-02-01T18:29:08;7.70;99.90
4695;DHT22;2361;49.540;8.390;2023-02-01T18:31:40;7.70;99.90
4695;DHT22;2361;49.540;8.390;2023-02-01T18:34:11;7.70;99.90
4695;DHT22;2361;49.540;8.390;2023-02-01T18:36:42;7.70;99.90
4695;DHT22;2361;49.540;8.390;2023-02-01T18:39:09;7.70;99.90
4695;DHT22;2361;49.540;8.390;2023-02-01T18:41:37;7.70;99.90
4695;DHT22;2361;49.540;8.390;2023-02-01T18:44:04;7.70;99.90
4695;DHT22;2361;49.540;8.390;2023-02-01T18:46:31;7.80;99.90
4695;DHT22;2361;49.540;8.390;2023-02-01T18:48:58;7.80;99.90
4695;DHT22;2361;49.540;8.390;2023-02-01T18:51:25;7.80;99.90
4695;DHT22;2361;49.540;8.390;2023-02-01T18:53:52;7.90;99.90
4695;DHT22;2361;49.540;8.390;2023-02-01T18:56:19;7.80;99.90
4695;DHT22;2361;49.540;8.390;2023-02-01T18:58:46;7.80;99.90
4695;DHT22;2361;49.540;8.390;2023-02-01T19:01:16;7.80;99.90
4695;DHT22;2361;49.540;8.390;2023-02-01T19:03:44;7.80;99.90
4695;DHT22;2361;49.540;8.390;2023-02-01T19:06:16;7.80;99.90
4695;DHT22;2361;49.540;8.390;2023-02-01T19:08:46;7.80;99.90
4695;DHT22;2361;49.540;8.390;2023-02-01T19:11:14;7.80;99.90
4695;DHT22;2361;49.540;8.390;2023-02-01T19:13:41;7.80;99.90
4695;DHT22;2361;49.540;8.390;2023-02-01T19:16:09;7.80;99.90
4695;DHT22;2361;49.540;8.390;2023-02-01T19:18:38;7.70;99.90
4695;DHT22;2361;49.540;8.390;2023-02-01T19:21:08;7.70;99.90
4695;DHT22;2361;49.540;8.390;2023-02-01T19:23:40;7.70;99.90
4695;DHT22;2361;49.540;8.390;2023-02-01T19:26:11;7.70;99.90
4695;DHT22;2361;49.540;8.390;2023-02-01T19:28:40;7.70;99.90
4695;DHT22;2361;49.540;8.390;2023-02-01T19:31:07;7.70;99.90
4695;DHT22;2361;49.540;8.390;2023-02-01T19:33:35;7.80;99.90
4695;DHT22;2361;49.540;8.390;2023-02-01T19:36:04;7.70;99.90
4695;DHT22;2361;49.540;8.390;2023-02-01T19:38:32;7.70;99.90
4695;DHT22;2361;49.540;8.390;2023-02-01T19:41:00;7.70;99.90
4695;DHT22;2361;49.540;8.390;2023-02-01T19:43:27;7.80;99.90
4695;DHT22;2361;49.540;8.390;2023-02-01T19:45:54;7.70;99.90
4695;DHT22;2361;49.540;8.390;2023-02-01T19:48:23;7.80;99.90
4695;DHT22;2361;49.540;8.390;2023-02-01T19:50:50;7.70;99.90